createdAt,value
2019-05-05T00:02:29.546Z,92.70
2019-05-05T00:05:10.471Z,93.10
2019-05-05T00:07:40.693Z,92.30
2019-05-05T00:10:14.991Z,92.50
2019-05-05T00:13:04.392Z,91.90
2019-05-05T00:15:39.054Z,91.80
2019-05-05T00:18:09.139Z,91.90
2019-05-05T00:20:39.278Z,91.30
2019-05-05T00:23:09.543Z,91.30
2019-05-05T00:25:39.670Z,91.40
2019-05-05T00:28:09.836Z,91.00
2019-05-05T00:30:40.030Z,92.10
2019-05-05T00:33:10.127Z,92.40
2019-05-05T00:35:40.304Z,92.10
2019-05-05T00:38:10.430Z,92.40
2019-05-05T00:40:40.556Z,92.50
2019-05-05T00:43:10.651Z,92.50
2019-05-05T00:45:42.042Z,92.10
2019-05-05T00:48:15.346Z,92.70
2019-05-05T00:50:45.017Z,92.30
2019-05-05T00:53:15.080Z,91.50
2019-05-05T00:55:45.205Z,91.00
2019-05-05T00:58:15.303Z,91.00
2019-05-05T01:00:49.925Z,91.30
2019-05-05T01:03:21.350Z,91.80
2019-05-05T01:05:56.206Z,87.10
2019-05-05T01:08:27.935Z,90.00
2019-05-05T01:10:58.527Z,87.80
2019-05-05T01:13:30.002Z,86.20
2019-05-05T01:16:00.195Z,85.10
2019-05-05T01:18:30.281Z,88.00
2019-05-05T01:21:01.327Z,88.30
2019-05-05T01:23:31.486Z,88.10
2019-05-05T01:26:01.678Z,90.30
2019-05-05T01:28:32.202Z,90.80
2019-05-05T01:31:05.595Z,91.00
2019-05-05T01:33:39.579Z,91.20
2019-05-05T01:36:09.602Z,91.40
2019-05-05T01:38:50.324Z,92.50
2019-05-05T01:41:27.553Z,91.80
2019-05-05T01:43:57.650Z,91.90
2019-05-05T01:46:27.906Z,92.80
2019-05-05T01:48:58.065Z,93.50
2019-05-05T01:51:28.186Z,93.40
2019-05-05T01:53:58.345Z,93.40
2019-05-05T01:56:28.485Z,92.80
2019-05-05T01:58:58.930Z,92.70
2019-05-05T02:01:29.174Z,92.80
2019-05-05T02:03:59.631Z,92.60
2019-05-05T02:06:29.822Z,92.10
2019-05-05T02:08:59.942Z,91.10
2019-05-05T02:11:30.122Z,91.10
2019-05-05T02:14:00.317Z,91.50
2019-05-05T02:16:30.410Z,92.40
2019-05-05T02:19:01.542Z,92.90
2019-05-05T02:21:31.638Z,93.30
2019-05-05T02:24:01.831Z,93.00
2019-05-05T02:26:31.954Z,93.50
2019-05-05T02:29:04.917Z,92.90
2019-05-05T02:31:39.302Z,92.60
2019-05-05T02:34:11.613Z,93.00
2019-05-05T02:36:41.850Z,93.40
2019-05-05T02:39:11.934Z,93.20
2019-05-05T02:41:45.217Z,93.90
2019-05-05T02:44:15.609Z,93.60
2019-05-05T02:46:49.999Z,94.00
2019-05-05T02:49:22.099Z,94.70
2019-05-05T02:51:55.239Z,94.30
2019-05-05T02:54:28.307Z,94.30
2019-05-05T02:56:58.423Z,93.30
2019-05-05T02:59:40.787Z,92.20
2019-05-05T03:02:14.354Z,92.10
2019-05-05T03:04:46.943Z,91.70
2019-05-05T03:07:18.665Z,92.10
2019-05-05T03:09:51.178Z,91.40
2019-05-05T03:12:24.301Z,91.00
2019-05-05T03:14:56.150Z,91.20
2019-05-05T03:17:26.626Z,90.90
2019-05-05T03:19:56.811Z,91.30
2019-05-05T03:22:27.336Z,91.50
2019-05-05T03:24:57.456Z,90.00
2019-05-05T03:27:27.546Z,90.20
2019-05-05T03:29:57.662Z,88.50
2019-05-05T03:32:28.414Z,87.80
2019-05-05T03:34:58.812Z,85.70
2019-05-05T03:37:29.294Z,86.00
2019-05-05T03:40:01.366Z,86.00
2019-05-05T03:42:36.426Z,81.40
2019-05-05T03:45:08.567Z,83.80
2019-05-05T03:47:38.755Z,85.40
2019-05-05T03:50:09.346Z,82.70
2019-05-05T03:52:40.243Z,82.30
2019-05-05T03:55:10.399Z,77.30
2019-05-05T03:57:40.622Z,79.10
2019-05-05T04:00:10.730Z,78.30
2019-05-05T04:02:49.551Z,79.50
2019-05-05T04:05:23.454Z,78.50
2019-05-05T04:07:54.556Z,78.80
2019-05-05T04:10:24.793Z,81.50
2019-05-05T04:12:56.996Z,80.50
2019-05-05T04:15:33.778Z,81.70
2019-05-05T04:18:05.654Z,80.10
2019-05-05T04:20:37.089Z,78.70
2019-05-05T04:23:07.610Z,78.10
2019-05-05T04:25:37.695Z,78.80
2019-05-05T04:28:07.890Z,77.50
2019-05-05T04:30:37.982Z,77.60
2019-05-05T04:33:08.107Z,75.70
2019-05-05T04:35:38.299Z,75.30
2019-05-05T04:38:08.454Z,74.10
2019-05-05T04:40:38.590Z,75.80
2019-05-05T04:43:08.678Z,75.10
2019-05-05T04:45:38.810Z,75.00
2019-05-05T04:48:10.545Z,79.50
2019-05-05T04:50:45.118Z,80.80
2019-05-05T04:53:16.914Z,76.00
2019-05-05T04:55:49.173Z,73.10
2019-05-05T04:58:19.271Z,70.60
2019-05-05T05:00:49.459Z,71.30
2019-05-05T05:03:24.282Z,70.50
2019-05-05T05:06:11.090Z,70.10
2019-05-05T05:08:41.191Z,69.40
2019-05-05T05:11:11.397Z,66.10
2019-05-05T05:13:41.482Z,71.00
2019-05-05T05:16:13.734Z,69.60
2019-05-05T05:18:44.599Z,70.00
2019-05-05T05:21:14.922Z,73.50
2019-05-05T05:23:45.015Z,73.20
2019-05-05T05:26:15.141Z,73.50
2019-05-05T05:28:45.230Z,77.40
2019-05-05T05:31:15.357Z,77.50
2019-05-05T05:33:45.438Z,75.50
2019-05-05T05:36:15.587Z,79.20
2019-05-05T05:38:47.315Z,81.30
2019-05-05T05:41:19.082Z,85.70
2019-05-05T05:43:54.204Z,87.50
2019-05-05T05:46:26.081Z,88.60
2019-05-05T05:49:04.900Z,87.30
2019-05-05T05:51:35.499Z,88.60
2019-05-05T05:54:05.580Z,90.10
2019-05-05T05:56:36.783Z,90.00
2019-05-05T05:59:06.862Z,91.60
2019-05-05T06:01:37.093Z,92.00
2019-05-05T06:04:07.166Z,90.90
2019-05-05T06:06:37.286Z,90.00
2019-05-05T06:09:07.366Z,90.40
2019-05-05T06:11:37.483Z,91.10
2019-05-05T06:14:07.566Z,90.70
2019-05-05T06:16:37.670Z,91.00
2019-05-05T06:19:10.227Z,91.60
2019-05-05T06:21:39.486Z,91.40
2019-05-05T06:24:09.774Z,92.60
2019-05-05T06:26:39.859Z,93.20
2019-05-05T06:29:10.107Z,93.00
2019-05-05T06:31:40.275Z,90.90
2019-05-05T06:34:10.466Z,91.10
2019-05-05T06:36:41.809Z,89.10
2019-05-05T06:39:13.670Z,90.50
2019-05-05T06:41:57.105Z,90.00
2019-05-05T06:44:28.954Z,89.60
2019-05-05T06:47:04.735Z,84.80
2019-05-05T06:49:35.250Z,86.20
2019-05-05T06:52:05.322Z,85.90
2019-05-05T06:54:35.543Z,84.40
2019-05-05T06:57:06.737Z,88.50
2019-05-05T06:59:36.897Z,86.50
2019-05-05T07:02:07.047Z,85.70
2019-05-05T07:04:37.234Z,86.80
2019-05-05T07:07:07.322Z,87.70
2019-05-05T07:09:37.518Z,85.20
2019-05-05T07:12:07.630Z,84.40
2019-05-05T07:14:37.760Z,86.90
2019-05-05T07:17:07.965Z,85.10
2019-05-05T07:19:38.157Z,89.00
2019-05-05T07:22:08.278Z,84.30
2019-05-05T07:24:39.442Z,82.30
2019-05-05T07:27:09.731Z,81.50
2019-05-05T07:29:40.878Z,80.70
2019-05-05T07:32:14.165Z,82.70
2019-05-05T07:35:04.222Z,80.70
2019-05-05T07:37:34.577Z,83.10
2019-05-05T07:40:09.313Z,82.80
2019-05-05T07:42:40.503Z,83.70
2019-05-05T07:45:20.357Z,82.20
2019-05-05T07:47:43.734Z,80.60
2019-05-05T07:50:28.943Z,80.20
2019-05-05T07:52:47.270Z,80.60
2019-05-05T07:55:17.346Z,79.50
2019-05-05T07:57:47.537Z,81.10
2019-05-05T08:00:17.726Z,77.90
2019-05-05T08:02:49.559Z,79.80
2019-05-05T08:09:15.117Z,77.10
2019-05-05T08:11:45.273Z,77.60
2019-05-05T08:14:18.954Z,73.00
2019-05-05T08:17:00.401Z,73.30
2019-05-05T08:19:34.378Z,73.50
2019-05-05T08:22:05.470Z,75.80
2019-05-05T08:24:50.639Z,73.60
2019-05-05T08:27:37.764Z,70.80
2019-05-05T08:30:14.145Z,74.70
2019-05-05T08:32:45.820Z,78.80
2019-05-05T08:35:15.956Z,75.90
2019-05-05T08:37:46.064Z,75.30
2019-05-05T08:40:16.354Z,78.30
2019-05-05T08:42:46.522Z,70.90
2019-05-05T08:45:16.821Z,79.60
2019-05-05T08:47:48.084Z,77.70
2019-05-05T08:50:18.181Z,73.80
2019-05-05T08:52:48.361Z,78.30
2019-05-05T08:55:18.491Z,74.30
2019-05-05T08:57:48.724Z,69.20
2019-05-05T09:00:19.900Z,73.60
2019-05-05T09:02:50.018Z,69.30
2019-05-05T09:05:20.202Z,74.30
2019-05-05T09:07:50.404Z,73.30
2019-05-05T09:10:23.760Z,69.90
2019-05-05T09:12:54.378Z,65.60
2019-05-05T09:15:24.756Z,70.10
2019-05-05T09:17:54.857Z,69.40
2019-05-05T09:20:24.988Z,73.20
2019-05-05T09:22:57.304Z,74.70
2019-05-05T09:25:28.628Z,74.50
2019-05-05T09:28:03.039Z,74.10
2019-05-05T09:30:35.416Z,64.40
2019-05-05T09:33:05.413Z,65.20
2019-05-05T09:35:35.610Z,62.50
2019-05-05T09:38:05.781Z,62.20
2019-05-05T09:40:38.404Z,65.70
2019-05-05T09:43:09.477Z,62.50
2019-05-05T09:45:39.893Z,59.40
2019-05-05T09:48:09.975Z,62.40
2019-05-05T09:50:40.193Z,60.90
2019-05-05T09:53:10.593Z,57.40
2019-05-05T09:55:40.753Z,58.90
2019-05-05T09:58:10.889Z,58.80
2019-05-05T10:00:44.024Z,56.40
2019-05-05T10:03:14.566Z,61.00
2019-05-05T10:05:45.527Z,59.20
2019-05-05T10:08:15.613Z,62.50
2019-05-05T10:10:45.830Z,60.10
2019-05-05T10:13:15.932Z,58.60
2019-05-05T10:15:46.158Z,55.70
2019-05-05T10:18:16.324Z,58.70
2019-05-05T10:20:46.464Z,55.10
2019-05-05T10:23:16.816Z,57.80
2019-05-05T10:25:48.657Z,54.40
2019-05-05T10:28:19.830Z,56.00
2019-05-05T10:30:49.933Z,54.60
2019-05-05T10:33:20.128Z,56.20
2019-05-05T10:35:50.771Z,56.30
2019-05-05T10:38:21.068Z,58.20
2019-05-05T10:40:51.217Z,55.10
2019-05-05T10:43:21.389Z,55.00
2019-05-05T10:45:51.529Z,55.10
2019-05-05T10:48:23.478Z,54.50
2019-05-05T10:50:53.770Z,54.60
2019-05-05T10:53:24.066Z,52.30
2019-05-05T10:55:54.278Z,56.20
2019-05-05T10:58:25.408Z,56.80
2019-05-05T11:00:57.211Z,56.90
2019-05-05T11:03:27.406Z,56.30
2019-05-05T11:05:57.672Z,55.70
2019-05-05T11:08:30.653Z,57.00
2019-05-05T11:11:00.325Z,57.60
2019-05-05T11:13:30.536Z,54.20
2019-05-05T11:16:00.640Z,54.60
2019-05-05T11:18:30.923Z,54.10
2019-05-05T11:21:01.041Z,53.30
2019-05-05T11:23:31.147Z,52.90
2019-05-05T11:26:01.274Z,54.40
2019-05-05T11:28:31.448Z,51.50
2019-05-05T11:31:01.589Z,53.50
2019-05-05T11:33:39.371Z,53.70
2019-05-05T11:36:13.468Z,54.60
2019-05-05T11:38:44.648Z,53.80
2019-05-05T11:41:14.957Z,52.30
2019-05-05T11:43:45.149Z,51.30
2019-05-05T11:46:15.356Z,53.60
2019-05-05T11:48:46.568Z,53.40
2019-05-05T11:51:16.718Z,52.60
2019-05-05T11:53:46.913Z,53.10
2019-05-05T11:56:17.056Z,52.70
2019-05-05T11:58:47.212Z,53.40
2019-05-05T12:01:17.429Z,51.90
2019-05-05T12:03:48.578Z,52.50
2019-05-05T12:06:18.776Z,53.30
2019-05-05T12:08:48.899Z,52.50
2019-05-05T12:11:19.109Z,52.80
2019-05-05T12:13:49.284Z,53.00
2019-05-05T12:16:30.085Z,52.20
2019-05-05T12:19:01.873Z,53.70
2019-05-05T12:21:33.724Z,51.90
2019-05-05T12:24:05.760Z,52.10
2019-05-05T12:26:40.751Z,52.20
2019-05-05T12:29:11.255Z,51.80
2019-05-05T12:31:44.469Z,52.00
2019-05-05T12:34:15.839Z,52.80
2019-05-05T12:36:45.931Z,54.40
2019-05-05T12:39:16.054Z,53.30
2019-05-05T12:41:46.217Z,53.00
2019-05-05T12:44:18.066Z,54.40
2019-05-05T12:46:49.878Z,53.50
2019-05-05T12:49:22.711Z,54.30
2019-05-05T12:51:53.956Z,54.30
2019-05-05T12:54:24.555Z,54.80
2019-05-05T12:56:54.796Z,54.00
2019-05-05T12:59:26.462Z,55.70
2019-05-05T13:01:56.725Z,54.30
2019-05-05T13:04:26.855Z,54.80
2019-05-05T13:06:56.982Z,55.30
2019-05-05T13:09:27.133Z,57.90
2019-05-05T13:11:57.342Z,57.90
2019-05-05T13:14:27.601Z,60.70
2019-05-05T13:16:57.980Z,60.70
2019-05-05T13:19:34.572Z,62.20
2019-05-05T13:22:06.955Z,63.20
2019-05-05T13:24:51.088Z,64.40
2019-05-05T13:27:25.744Z,61.90
2019-05-05T13:29:57.983Z,61.60
2019-05-05T13:32:28.218Z,67.60
2019-05-05T13:34:58.338Z,66.80
2019-05-05T13:37:28.483Z,67.60
2019-05-05T13:39:58.630Z,67.30
2019-05-05T13:42:28.833Z,68.40
2019-05-05T13:45:00.699Z,74.10
2019-05-05T13:47:30.895Z,72.00
2019-05-05T13:50:03.693Z,75.10
2019-05-05T13:52:33.991Z,75.60
2019-05-05T13:55:05.730Z,77.90
2019-05-05T13:57:36.007Z,79.60
2019-05-05T14:00:09.483Z,79.40
2019-05-05T14:02:38.805Z,83.30
2019-05-05T14:05:08.923Z,82.30
2019-05-05T14:07:39.217Z,84.20
2019-05-05T14:10:09.565Z,85.00
2019-05-05T14:12:40.958Z,83.60
2019-05-05T14:15:14.660Z,83.10
2019-05-05T14:17:45.450Z,85.40
2019-05-05T14:20:15.702Z,85.70
2019-05-05T14:22:47.003Z,88.30
2019-05-05T14:25:26.508Z,89.10
2019-05-05T14:27:56.725Z,89.50
2019-05-05T14:30:31.326Z,85.60
2019-05-05T14:33:03.772Z,86.90
2019-05-05T14:35:35.577Z,84.70
2019-05-05T14:38:07.429Z,86.60
2019-05-05T14:40:37.585Z,89.60
2019-05-05T14:43:07.753Z,86.20
2019-05-05T14:45:37.921Z,85.10
2019-05-05T14:48:08.058Z,85.90
2019-05-05T14:50:38.254Z,84.10
2019-05-05T14:53:08.414Z,83.00
2019-05-05T14:55:38.607Z,82.10
2019-05-05T14:58:08.693Z,83.30
2019-05-05T15:00:39.550Z,84.60
2019-05-05T15:03:09.754Z,88.40
2019-05-05T15:05:41.503Z,86.90
2019-05-05T15:08:28.429Z,87.50
2019-05-05T15:11:05.989Z,89.00
2019-05-05T15:13:51.206Z,86.60
2019-05-05T15:16:21.407Z,87.90
2019-05-05T15:18:51.667Z,88.10
2019-05-05T15:21:23.522Z,86.90
2019-05-05T15:23:54.715Z,83.90
2019-05-05T15:26:24.880Z,83.80
2019-05-05T15:29:00.837Z,82.30
2019-05-05T15:31:26.820Z,85.00
2019-05-05T15:33:56.986Z,88.30
2019-05-05T15:36:29.510Z,88.30
2019-05-05T15:39:00.053Z,89.30
2019-05-05T15:41:30.321Z,87.60
2019-05-05T15:44:00.532Z,88.30
2019-05-05T15:46:33.569Z,88.60
2019-05-05T15:49:04.208Z,88.50
2019-05-05T15:51:34.692Z,88.70
2019-05-05T15:54:04.893Z,89.10
2019-05-05T15:56:36.041Z,89.10
2019-05-05T15:59:06.176Z,90.00
2019-05-05T16:01:36.294Z,89.00
2019-05-05T16:04:06.438Z,89.10
2019-05-05T16:06:36.564Z,90.00
2019-05-05T16:09:07.569Z,90.40
2019-05-05T16:11:39.144Z,90.40
2019-05-05T16:14:09.321Z,90.00
2019-05-05T16:16:44.583Z,89.70
2019-05-05T16:19:24.754Z,88.50
2019-05-05T16:22:00.007Z,88.00
2019-05-05T16:24:33.607Z,86.20
2019-05-05T16:27:08.170Z,86.70
2019-05-05T16:29:35.247Z,87.30
2019-05-05T16:32:18.404Z,88.60
2019-05-05T16:34:37.109Z,89.30
2019-05-05T16:37:07.226Z,88.40
2019-05-05T16:39:37.473Z,88.90
2019-05-05T16:42:07.618Z,88.30
2019-05-05T16:44:37.821Z,88.80
2019-05-05T16:47:08.060Z,90.00
2019-05-05T16:49:38.134Z,89.50
2019-05-05T16:52:09.985Z,89.70
2019-05-05T16:54:41.742Z,88.90
2019-05-05T16:57:11.822Z,90.40
2019-05-05T16:59:44.106Z,90.40
2019-05-05T17:02:13.981Z,90.40
2019-05-05T17:04:44.157Z,90.60
2019-05-05T17:07:14.315Z,90.50
2019-05-05T17:09:44.450Z,90.50
2019-05-05T17:12:14.537Z,90.60
2019-05-05T17:14:46.385Z,90.20
2019-05-05T17:17:25.985Z,90.40
2019-05-05T17:19:57.633Z,90.10
2019-05-05T17:22:29.431Z,90.00
2019-05-05T17:25:00.674Z,89.80
2019-05-05T17:27:30.884Z,89.20
2019-05-05T17:30:01.036Z,88.60
2019-05-05T17:32:34.460Z,88.00
2019-05-05T17:35:04.694Z,87.70
2019-05-05T17:37:34.869Z,87.10
2019-05-05T17:40:08.412Z,85.60
2019-05-05T17:42:45.384Z,86.40
2019-05-05T17:45:20.198Z,86.30
2019-05-05T17:48:00.890Z,86.30
2019-05-05T17:50:48.798Z,86.20
2019-05-05T17:53:26.426Z,85.30
2019-05-05T17:55:58.306Z,85.30
2019-05-05T17:58:28.400Z,85.00
2019-05-05T18:01:00.314Z,86.10
2019-05-05T18:03:30.491Z,85.50
2019-05-05T18:06:17.314Z,86.30
2019-05-05T18:08:53.760Z,85.20
2019-05-05T18:11:31.002Z,85.90
2019-05-05T18:14:03.972Z,84.70
2019-05-05T18:16:35.323Z,84.80
2019-05-05T18:19:05.594Z,85.60
2019-05-05T18:21:38.947Z,85.70
2019-05-05T18:24:09.099Z,86.40
2019-05-05T18:26:39.236Z,84.40
2019-05-05T18:29:09.342Z,83.20
2019-05-05T18:31:39.597Z,83.70
2019-05-05T18:34:09.822Z,84.00
2019-05-05T18:36:40.093Z,83.40
2019-05-05T18:39:10.203Z,83.70
2019-05-05T18:41:54.058Z,83.80
2019-05-05T18:44:24.997Z,84.40
2019-05-05T18:47:15.692Z,84.80
2019-05-05T18:49:45.119Z,86.30
2019-05-05T18:52:16.590Z,86.00
2019-05-05T18:54:49.609Z,86.00
2019-05-05T18:57:20.512Z,84.70
2019-05-05T18:59:50.608Z,86.70
2019-05-05T19:02:28.631Z,86.70
2019-05-05T19:05:16.716Z,87.00
2019-05-05T19:08:06.665Z,88.30
2019-05-05T19:10:36.882Z,87.30
2019-05-05T19:13:07.315Z,87.10
2019-05-05T19:15:37.450Z,86.80
2019-05-05T19:18:07.661Z,89.30
2019-05-05T19:20:43.994Z,89.00
2019-05-05T19:23:15.742Z,89.80
2019-05-05T19:25:49.892Z,90.20
2019-05-05T19:28:20.107Z,88.30
2019-05-05T19:30:50.381Z,88.00
2019-05-05T19:33:20.584Z,88.80
2019-05-05T19:35:50.734Z,89.30
2019-05-05T19:38:23.702Z,89.50
2019-05-05T19:40:56.313Z,89.20
2019-05-05T19:43:26.570Z,90.00
2019-05-05T19:45:56.776Z,90.50
2019-05-05T19:48:27.002Z,90.40
2019-05-05T19:51:01.446Z,90.60
2019-05-05T19:53:35.265Z,90.30
2019-05-05T19:56:04.046Z,90.10
2019-05-05T19:58:36.607Z,90.00
2019-05-05T20:01:06.181Z,90.30
2019-05-05T20:03:36.527Z,90.80
2019-05-05T20:06:08.418Z,90.50
2019-05-05T20:08:41.321Z,90.70
2019-05-05T20:11:10.489Z,90.60
2019-05-05T20:13:40.622Z,90.60
2019-05-05T20:16:18.486Z,90.70
2019-05-05T20:18:50.362Z,90.40
2019-05-05T20:21:20.471Z,90.20
2019-05-05T20:23:50.660Z,90.60
2019-05-05T20:26:20.789Z,90.90
2019-05-05T20:28:50.938Z,90.80
2019-05-05T20:31:21.145Z,91.00
2019-05-05T20:33:58.733Z,90.90
2019-05-05T20:36:30.567Z,91.40
2019-05-05T20:39:00.738Z,91.40
2019-05-05T20:41:33.897Z,91.50
2019-05-05T20:44:05.904Z,91.00
2019-05-05T20:46:36.004Z,90.70
2019-05-05T20:49:06.182Z,91.00
2019-05-05T20:51:36.387Z,91.20
2019-05-05T20:54:06.553Z,91.30
2019-05-05T20:56:36.739Z,91.20
2019-05-05T20:59:06.905Z,90.90
2019-05-05T21:01:37.135Z,90.90
2019-05-05T21:04:07.302Z,90.70
2019-05-05T21:06:37.506Z,90.50
2019-05-05T21:09:08.665Z,90.40
2019-05-05T21:11:39.086Z,90.00
2019-05-05T21:14:09.229Z,90.20
2019-05-05T21:16:39.437Z,90.00
2019-05-05T21:19:09.597Z,90.30
2019-05-05T21:21:41.358Z,89.40
2019-05-05T21:24:11.605Z,88.10
2019-05-05T21:26:52.179Z,87.70
2019-05-05T21:29:23.686Z,88.10
2019-05-05T21:31:54.821Z,89.10
2019-05-05T21:34:25.082Z,88.30
2019-05-05T21:36:55.166Z,87.70
2019-05-05T21:39:34.923Z,86.80
2019-05-05T21:42:13.918Z,87.00
2019-05-05T21:44:44.264Z,87.30
2019-05-05T21:47:14.486Z,88.20
2019-05-05T21:49:44.702Z,87.10
2019-05-05T21:52:34.535Z,89.80
2019-05-05T21:55:19.850Z,89.80
2019-05-05T21:58:00.790Z,90.10
2019-05-05T22:00:50.959Z,90.20
2019-05-05T22:03:28.849Z,87.70
2019-05-05T22:05:59.613Z,89.10
2019-05-05T22:08:33.562Z,89.80
2019-05-05T22:11:03.955Z,90.00
2019-05-05T22:13:36.327Z,90.00
2019-05-05T22:16:06.186Z,90.90
2019-05-05T22:18:36.358Z,90.50
2019-05-05T22:21:11.190Z,90.40
2019-05-05T22:23:41.356Z,90.30
2019-05-05T22:26:15.100Z,90.00
2019-05-05T22:28:45.429Z,90.30
2019-05-05T22:31:15.646Z,90.10
2019-05-05T22:33:45.844Z,90.30
2019-05-05T22:36:16.026Z,90.30
2019-05-05T22:38:46.267Z,90.80
2019-05-05T22:41:16.462Z,90.30
2019-05-05T22:43:46.566Z,90.70
2019-05-05T22:46:16.687Z,90.80
2019-05-05T22:48:46.793Z,90.70
2019-05-05T22:51:16.911Z,90.80
2019-05-05T22:53:47.097Z,90.70
2019-05-05T22:56:17.218Z,90.90
2019-05-05T22:58:47.402Z,90.70
2019-05-05T23:01:17.586Z,90.90
2019-05-05T23:03:58.216Z,90.50
2019-05-05T23:06:43.728Z,90.70
2019-05-05T23:09:14.743Z,91.00
2019-05-05T23:11:44.988Z,90.80
2019-05-05T23:14:30.589Z,90.60
2019-05-05T23:17:12.486Z,90.40
2019-05-05T23:19:49.994Z,91.40
2019-05-05T23:22:24.710Z,91.10
2019-05-05T23:24:59.128Z,90.90
2019-05-05T23:27:49.318Z,90.60
2019-05-05T23:30:23.792Z,91.00
2019-05-05T23:32:54.795Z,90.90
2019-05-05T23:35:26.267Z,91.30
2019-05-05T23:37:56.432Z,91.30
2019-05-05T23:40:27.517Z,91.30
2019-05-05T23:42:57.665Z,91.00
2019-05-05T23:45:27.878Z,90.70
2019-05-05T23:47:57.961Z,90.90
2019-05-05T23:50:28.164Z,91.20
2019-05-05T23:52:58.311Z,91.50
2019-05-05T23:55:28.444Z,91.50
2019-05-05T23:57:58.538Z,91.20
